Wetterdaten: aktuell Dienstag, 05.05.2026 09:45
Datum Zeit Temp. A. Feuchte A. Luftdruck Regen Wind Richtung Richtung Sonnenschein Solar Windböen
05.05.2026 09:45 19,2 °C 72 % 1009,5 hPa 0,0 l/m² 4,2 km/h (1 Bft) W-SW 244 ° 60 min 704 W/m² 11,3 km/h (2 Bft)
05.05.2026 08:45 16,1 °C 79 % 1010,0 hPa 0,0 l/m² 4,0 km/h (1 Bft) NW 306 ° 0 min 336 W/m² 12,9 km/h (3 Bft)
05.05.2026 07:45 14,3 °C 83 % 1010,1 hPa 0,0 l/m² 1,8 km/h (1 Bft) W-NW 292 ° 0 min 100 W/m² 6,4 km/h (2 Bft)
05.05.2026 06:45 14,0 °C 83 % 1010,2 hPa 0,0 l/m² 2,4 km/h (1 Bft) W-NW 290 ° 0 min 76 W/m² 9,7 km/h (2 Bft)
05.05.2026 05:45 12,8 °C 86 % 1009,7 hPa 0,0 l/m² 0,0 km/h (0 Bft) S-SW 196 ° 0 min 36 W/m² 0,0 km/h (0 Bft)
05.05.2026 04:45 12,4 °C 86 % 1009,8 hPa 0,0 l/m² 0,0 km/h (0 Bft) S-SW 195 ° 0 min 3 W/m² 0,0 km/h (0 Bft)
05.05.2026 03:45 13,3 °C 84 % 1010,4 hPa 0,0 l/m² 0,0 km/h (0 Bft) S-SW 195 ° 0 min 0 W/m² 0,0 km/h (0 Bft)
05.05.2026 02:45 14,1 °C 82 % 1010,9 hPa 0,0 l/m² 0,3 km/h (0 Bft) S-SW 195 ° 0 min 0 W/m² 3,2 km/h (1 Bft)
05.05.2026 01:45 14,2 °C 80 % 1011,8 hPa 0,0 l/m² 1,4 km/h (1 Bft) W-SW 242 ° 0 min 0 W/m² 4,8 km/h (1 Bft)
05.05.2026 00:45 14,6 °C 78 % 1012,0 hPa 0,0 l/m² 1,9 km/h (1 Bft) NW 309 ° 0 min 0 W/m² 4,8 km/h (1 Bft)
04.05.2026 23:45 13,8 °C 81 % 1012,2 hPa 0,0 l/m² 0,0 km/h (0 Bft) NW 309 ° 0 min 0 W/m² 0,0 km/h (0 Bft)
04.05.2026 22:45 14,7 °C 79 % 1012,8 hPa 0,0 l/m² 0,7 km/h (0 Bft) NW 307 ° 0 min 0 W/m² 3,2 km/h (1 Bft)
04.05.2026 21:45 15,7 °C 75 % 1013,0 hPa 0,0 l/m² 0,0 km/h (0 Bft) NW 308 ° 0 min 0 W/m² 0,0 km/h (0 Bft)
04.05.2026 20:45 16,2 °C 73 % 1012,9 hPa 0,0 l/m² 0,2 km/h (0 Bft) NW 307 ° 0 min 0 W/m² 3,2 km/h (1 Bft)
04.05.2026 19:45 17,6 °C 68 % 1012,6 hPa 0,0 l/m² 0,0 km/h (0 Bft) NW 307 ° 15 min 0 W/m² 0,0 km/h (0 Bft)
04.05.2026 18:45 20,3 °C 60 % 1012,5 hPa 0,0 l/m² 3,3 km/h (1 Bft) NW 307 ° 0 min 40 W/m² 9,7 km/h (2 Bft)
04.05.2026 17:45 20,9 °C 56 % 1012,5 hPa 0,0 l/m² 5,2 km/h (1 Bft) W-NW 287 ° 0 min 74 W/m² 14,5 km/h (3 Bft)
04.05.2026 16:45 21,6 °C 56 % 1012,5 hPa 0,0 l/m² 8,0 km/h (2 Bft) NW 304 ° 0 min 165 W/m² 17,7 km/h (3 Bft)
04.05.2026 15:45 23,8 °C 50 % 1012,4 hPa 0,0 l/m² 7,5 km/h (2 Bft) W-NW 298 ° 30 min 272 W/m² 19,3 km/h (3 Bft)
04.05.2026 14:45 23,0 °C 48 % 1012,7 hPa 0,0 l/m² 6,5 km/h (2 Bft) W 279 ° 15 min 306 W/m² 14,5 km/h (3 Bft)
04.05.2026 13:45 21,9 °C 48 % 1013,1 hPa 0,0 l/m² 6,5 km/h (2 Bft) N-NW 341 ° 15 min 407 W/m² 14,5 km/h (3 Bft)
04.05.2026 12:45 24,3 °C 43 % 1013,3 hPa 0,0 l/m² 5,5 km/h (1 Bft) W-NW 288 ° 45 min 560 W/m² 14,5 km/h (3 Bft)
04.05.2026 11:45 22,7 °C 44 % 1014,1 hPa 0,0 l/m² 6,8 km/h (2 Bft) SW 227 ° 30 min 597 W/m² 17,7 km/h (3 Bft)
04.05.2026 10:45 21,9 °C 47 % 1014,7 hPa 0,0 l/m² 5,8 km/h (2 Bft) S-SO 148 ° 30 min 763 W/m² 17,7 km/h (3 Bft)
04.05.2026 10:00 21,6 °C 48 % 1014,9 hPa 0,0 l/m² 3,5 km/h (1 Bft) W-SW 254 ° 0 min 386 W/m² 11,3 km/h (2 Bft)
_ Min-Zeit 05:00 12:45 09:45 - 19:15 - - - - 19:30
Minimum _ 12,2 °C 43 % 1009,5 hPa - 0,0 km/h (0 Bft) - - - - 0,0 km/h (0 Bft)
_ Max-Zeit 15:15 04:30 10:00 10:00 13:30 - - 10:30 10:45 16:00
Maximum _ 24,7 °C 87 % 1014,9 hPa 0,0 l/m² 9,6 km/h
N-NW (2 Bft)
- - 15 min 763 W/m² 20,9 km/h
W-NW (4 Bft)
Durchschnitt _ 17,9 °C 67 % 1012,2 hPa #0,0 l/m² 2,8 km/h (1 Bft) NW - #1:00 h 104 W/m² 8,2 km/h (2 Bft)